createdAt,value
2023-05-19T00:00:37.376Z,9.97
2023-05-19T00:03:05.306Z,12.40
2023-05-19T00:05:33.837Z,10.33
2023-05-19T00:08:02.102Z,10.07
2023-05-19T00:10:32.085Z,14.60
2023-05-19T00:12:59.908Z,21.73
2023-05-19T00:15:27.761Z,25.13
2023-05-19T00:17:55.753Z,23.20
2023-05-19T00:20:23.245Z,24.47
2023-05-19T00:22:51.754Z,30.57
2023-05-19T00:25:19.440Z,23.23
2023-05-19T00:27:46.732Z,19.43
2023-05-19T00:30:14.372Z,18.47
2023-05-19T00:32:42.174Z,24.80
2023-05-19T00:35:09.950Z,22.03
2023-05-19T00:37:37.624Z,17.73
2023-05-19T00:40:06.796Z,18.67
2023-05-19T00:42:34.474Z,16.02
2023-05-19T00:45:01.846Z,15.90
2023-05-19T00:47:29.753Z,15.10
2023-05-19T00:49:57.177Z,13.23
2023-05-19T00:52:24.629Z,11.63
2023-05-19T00:54:53.125Z,16.67
2023-05-19T00:57:21.480Z,20.10
2023-05-19T00:59:49.437Z,14.90
2023-05-19T01:02:18.260Z,16.35
2023-05-19T01:04:47.277Z,18.80
2023-05-19T01:07:15.593Z,19.23
2023-05-19T01:09:43.577Z,18.27
2023-05-19T01:12:11.084Z,14.73
2023-05-19T01:14:38.705Z,16.47
2023-05-19T01:17:30.825Z,14.13
2023-05-19T01:20:05.228Z,15.90
2023-05-19T01:22:55.080Z,14.30
2023-05-19T01:26:07.380Z,16.83
2023-05-19T01:28:56.843Z,12.00
2023-05-19T01:31:25.883Z,13.67
2023-05-19T01:33:55.420Z,13.60
2023-05-19T01:36:26.208Z,16.37
2023-05-19T01:38:57.929Z,21.37
2023-05-19T01:41:28.627Z,15.23
2023-05-19T01:43:57.979Z,19.43
2023-05-19T01:46:25.692Z,13.13
2023-05-19T01:48:53.895Z,11.83
2023-05-19T01:51:21.770Z,7.20
2023-05-19T01:53:49.365Z,10.60
2023-05-19T01:56:22.679Z,10.37
2023-05-19T01:58:59.865Z,11.60
2023-05-19T02:01:33.810Z,11.33
2023-05-19T02:04:23.116Z,17.20
2023-05-19T02:07:15.976Z,11.23
2023-05-19T02:09:59.812Z,14.40
2023-05-19T02:12:35.869Z,21.03
2023-05-19T02:15:26.917Z,16.60
2023-05-19T02:17:56.265Z,25.80
2023-05-19T02:20:24.297Z,15.40
2023-05-19T02:22:52.549Z,16.90
2023-05-19T02:25:19.915Z,16.50
2023-05-19T02:27:49.324Z,18.00
2023-05-19T02:30:17.755Z,15.57
2023-05-19T02:32:48.279Z,13.60
2023-05-19T02:35:16.776Z,19.63
2023-05-19T02:37:45.156Z,18.23
2023-05-19T02:40:12.607Z,14.43
2023-05-19T02:42:39.883Z,18.83
2023-05-19T02:45:08.050Z,17.90
2023-05-19T02:47:37.303Z,16.73
2023-05-19T02:50:06.218Z,16.90
2023-05-19T02:55:01.431Z,17.40
2023-05-19T02:57:31.960Z,21.17
2023-05-19T02:59:59.749Z,17.57
2023-05-19T03:02:27.322Z,21.93
2023-05-19T03:04:55.231Z,22.20
2023-05-19T03:07:25.457Z,13.77
2023-05-19T03:09:53.229Z,14.40
2023-05-19T03:12:26.546Z,17.10
2023-05-19T03:14:54.398Z,25.10
2023-05-19T03:17:21.897Z,31.40
2023-05-19T03:19:49.302Z,169.10
2023-05-19T03:22:18.741Z,57.47
2023-05-19T03:27:14.262Z,40.37
2023-05-19T03:30:02.739Z,38.85
2023-05-19T03:32:37.821Z,38.00
2023-05-19T03:35:06.616Z,45.30
2023-05-19T03:37:34.602Z,33.23
2023-05-19T03:40:04.006Z,22.30
2023-05-19T03:42:32.589Z,33.03
2023-05-19T03:45:00.050Z,25.40
2023-05-19T03:47:27.464Z,15.07
2023-05-19T03:50:02.522Z,12.53
2023-05-19T03:52:33.764Z,15.27
2023-05-19T03:55:04.235Z,13.23
2023-05-19T03:57:32.444Z,16.90
2023-05-19T04:00:00.020Z,11.03
2023-05-19T04:02:28.561Z,12.60
2023-05-19T04:04:57.128Z,16.48
2023-05-19T04:07:26.422Z,18.67
2023-05-19T04:09:53.926Z,15.80
2023-05-19T04:12:24.952Z,20.60
2023-05-19T04:14:54.473Z,15.93
2023-05-19T04:17:28.060Z,15.07
2023-05-19T04:19:58.196Z,23.00
2023-05-19T04:22:26.358Z,19.23
2023-05-19T04:25:04.215Z,18.53
2023-05-19T04:27:41.283Z,20.65
2023-05-19T04:30:11.405Z,42.78
2023-05-19T04:32:41.610Z,61.83
2023-05-19T04:37:40.755Z,30.87
2023-05-19T04:40:11.357Z,22.52
2023-05-19T04:42:46.271Z,16.77
2023-05-19T04:45:17.108Z,16.17
2023-05-19T04:47:49.103Z,18.40
2023-05-19T04:50:18.483Z,17.00
2023-05-19T04:52:52.796Z,22.97
2023-05-19T04:55:22.488Z,27.03
2023-05-19T04:57:50.290Z,24.57
2023-05-19T05:00:22.146Z,20.50
2023-05-19T05:02:53.753Z,23.23
2023-05-19T05:05:21.376Z,20.53
2023-05-19T05:07:49.691Z,20.07
2023-05-19T05:10:17.837Z,19.75
2023-05-19T05:12:47.087Z,18.42
2023-05-19T05:15:14.760Z,16.80
2023-05-19T05:17:43.861Z,18.20
2023-05-19T05:20:12.894Z,15.90
2023-05-19T05:25:09.837Z,17.92
2023-05-19T05:27:37.730Z,15.27
2023-05-19T05:30:33.997Z,17.55
2023-05-19T05:33:04.859Z,16.80
2023-05-19T05:35:32.913Z,18.67
2023-05-19T05:38:03.594Z,19.10
2023-05-19T05:40:31.642Z,19.47
2023-05-19T05:43:08.500Z,18.23
2023-05-19T05:45:37.592Z,18.13
2023-05-19T05:48:06.104Z,21.23
2023-05-19T05:50:40.182Z,19.57
2023-05-19T05:53:47.480Z,24.63
2023-05-19T05:59:41.767Z,14.13
2023-05-19T06:02:25.495Z,21.10
2023-05-19T06:04:54.572Z,16.40
2023-05-19T06:07:29.658Z,13.50
2023-05-19T06:09:57.818Z,13.37
2023-05-19T06:12:26.873Z,14.20
2023-05-19T06:15:04.991Z,16.77
2023-05-19T06:17:36.907Z,15.70
2023-05-19T06:20:06.852Z,18.97
2023-05-19T06:22:49.470Z,14.83
2023-05-19T06:25:21.015Z,15.00
2023-05-19T06:27:50.519Z,13.47
2023-05-19T06:30:20.612Z,16.80
2023-05-19T06:32:53.985Z,17.10
2023-05-19T06:35:21.778Z,14.13
2023-05-19T06:37:57.854Z,14.13
2023-05-19T06:40:37.267Z,12.37
2023-05-19T06:43:11.963Z,12.27
2023-05-19T06:45:43.098Z,11.80
2023-05-19T06:48:16.430Z,11.93
2023-05-19T06:50:44.036Z,16.80
2023-05-19T06:53:21.452Z,14.17
2023-05-19T06:55:59.217Z,9.37
2023-05-19T06:58:28.316Z,13.30
2023-05-19T07:00:57.741Z,12.25
2023-05-19T07:03:35.655Z,17.53
2023-05-19T07:06:05.686Z,10.67
2023-05-19T07:08:40.270Z,12.53
2023-05-19T07:11:19.141Z,12.10
2023-05-19T07:16:18.536Z,11.95
2023-05-19T07:18:52.177Z,12.25
2023-05-19T07:21:26.599Z,12.10
2023-05-19T07:24:09.958Z,13.23
2023-05-19T07:26:46.853Z,9.82
2023-05-19T07:29:19.300Z,11.32
2023-05-19T07:31:48.899Z,14.68
2023-05-19T07:34:16.316Z,18.98
2023-05-19T07:36:49.582Z,15.02
2023-05-19T07:39:17.631Z,16.05
2023-05-19T07:41:54.256Z,13.75
2023-05-19T07:44:23.900Z,12.40
2023-05-19T07:46:54.610Z,13.15
2023-05-19T07:49:22.394Z,14.70
2023-05-19T07:51:49.967Z,18.40
2023-05-19T07:54:20.286Z,13.68
2023-05-19T07:56:48.671Z,19.27
2023-05-19T07:59:16.515Z,18.92
2023-05-19T08:01:44.107Z,19.55
2023-05-19T08:04:13.264Z,14.63
2023-05-19T08:09:10.835Z,17.35
2023-05-19T08:11:38.550Z,15.75
2023-05-19T08:14:15.225Z,14.73
2023-05-19T08:16:45.590Z,14.82
2023-05-19T08:19:21.810Z,13.02
2023-05-19T08:22:01.519Z,12.83
2023-05-19T08:24:34.250Z,11.27
2023-05-19T08:27:05.030Z,16.95
2023-05-19T08:29:34.128Z,15.57
2023-05-19T08:32:03.000Z,12.37
2023-05-19T08:34:30.511Z,19.95
2023-05-19T08:37:01.056Z,19.73
2023-05-19T08:39:39.612Z,16.60
2023-05-19T08:42:08.581Z,14.35
2023-05-19T08:44:40.342Z,15.75
2023-05-19T08:47:12.972Z,15.30
2023-05-19T08:49:47.130Z,15.30
2023-05-19T08:52:25.906Z,14.27
2023-05-19T08:55:12.196Z,14.82
2023-05-19T08:57:43.121Z,18.65
2023-05-19T09:00:12.796Z,16.67
2023-05-19T09:02:55.048Z,17.45
2023-05-19T09:05:29.287Z,13.55
2023-05-19T09:07:59.434Z,22.30
2023-05-19T09:10:28.478Z,15.93
2023-05-19T09:12:57.025Z,18.37
2023-05-19T09:15:31.236Z,16.95
2023-05-19T09:18:11.082Z,16.52
2023-05-19T09:20:44.495Z,24.55
2023-05-19T09:23:16.735Z,25.60
2023-05-19T09:25:51.435Z,13.93
2023-05-19T09:28:31.943Z,13.07
2023-05-19T09:31:11.240Z,16.25
2023-05-19T09:33:46.289Z,14.15
2023-05-19T09:36:14.134Z,17.67
2023-05-19T09:38:42.039Z,14.48
2023-05-19T09:41:09.918Z,12.30
2023-05-19T09:43:37.364Z,19.37
2023-05-19T09:46:09.192Z,18.08
2023-05-19T09:48:38.197Z,17.12
2023-05-19T09:51:08.248Z,16.07
2023-05-19T09:53:35.936Z,14.43
2023-05-19T09:56:03.907Z,15.88
2023-05-19T09:58:37.130Z,15.35
2023-05-19T10:01:05.487Z,15.43
2023-05-19T10:03:34.483Z,11.60
2023-05-19T10:06:02.184Z,14.18
2023-05-19T10:08:31.042Z,14.55
2023-05-19T10:10:59.482Z,17.17
2023-05-19T10:13:29.441Z,13.52
2023-05-19T10:15:59.758Z,15.07
2023-05-19T10:18:30.022Z,19.50
2023-05-19T10:20:58.348Z,18.55
2023-05-19T10:23:26.666Z,22.48
2023-05-19T10:26:07.280Z,14.32
2023-05-19T10:28:38.457Z,14.68
2023-05-19T10:31:20.724Z,15.20
2023-05-19T10:34:08.397Z,15.50
2023-05-19T10:36:45.215Z,12.23
2023-05-19T10:39:32.852Z,15.43
2023-05-19T10:42:17.598Z,12.93
2023-05-19T10:45:13.694Z,14.25
2023-05-19T10:47:42.703Z,16.98
2023-05-19T10:50:18.127Z,23.58
2023-05-19T10:53:05.612Z,24.70
2023-05-19T10:55:52.776Z,12.18
2023-05-19T10:58:40.520Z,16.20
2023-05-19T11:01:19.963Z,16.12
2023-05-19T11:03:53.574Z,16.08
2023-05-19T11:06:32.704Z,12.63
2023-05-19T11:09:28.365Z,14.87
2023-05-19T11:12:04.106Z,13.40
2023-05-19T11:14:33.212Z,13.60
2023-05-19T11:17:01.139Z,13.32
2023-05-19T11:19:30.675Z,13.82
2023-05-19T11:22:09.213Z,17.85
2023-05-19T11:24:44.856Z,15.60
2023-05-19T11:27:27.718Z,16.15
2023-05-19T11:29:57.439Z,14.93
2023-05-19T11:32:31.417Z,17.48
2023-05-19T11:34:59.305Z,18.12
2023-05-19T11:37:29.122Z,23.98
2023-05-19T11:39:56.597Z,16.05
2023-05-19T11:42:24.117Z,19.50
2023-05-19T11:44:55.990Z,17.00
2023-05-19T11:47:23.569Z,16.73
2023-05-19T11:49:57.811Z,24.37
2023-05-19T11:52:26.206Z,20.47
2023-05-19T11:54:53.881Z,13.77
2023-05-19T11:57:21.534Z,17.60
2023-05-19T11:59:50.021Z,17.90
2023-05-19T12:02:28.079Z,16.85
2023-05-19T12:04:55.976Z,17.20
2023-05-19T12:07:24.225Z,13.83
2023-05-19T12:09:52.674Z,12.43
2023-05-19T12:12:21.635Z,16.90
2023-05-19T12:14:53.336Z,18.95
2023-05-19T12:17:21.683Z,11.47
2023-05-19T12:19:49.709Z,14.40
2023-05-19T12:22:18.243Z,12.73
2023-05-19T12:24:47.383Z,13.68
2023-05-19T12:27:20.317Z,20.00
2023-05-19T12:29:54.539Z,13.40
2023-05-19T12:32:26.473Z,13.57
2023-05-19T12:34:56.422Z,13.53
2023-05-19T12:37:27.925Z,11.97
2023-05-19T12:39:56.638Z,11.67
2023-05-19T12:42:24.514Z,13.55
2023-05-19T12:44:52.750Z,11.57
2023-05-19T12:47:21.293Z,13.75
2023-05-19T12:50:18.300Z,12.30
2023-05-19T12:52:53.547Z,9.63
2023-05-19T12:55:22.370Z,15.20
2023-05-19T12:57:54.816Z,14.17
2023-05-19T13:00:25.772Z,11.15
2023-05-19T13:03:05.554Z,11.52
2023-05-19T13:05:38.291Z,10.85
2023-05-19T13:08:08.469Z,10.85
2023-05-19T13:10:38.290Z,12.80
2023-05-19T13:13:07.611Z,8.20
2023-05-19T13:15:38.331Z,12.10
2023-05-19T13:18:09.095Z,14.63
2023-05-19T13:20:38.195Z,10.30
2023-05-19T13:23:06.070Z,14.48
2023-05-19T13:25:34.644Z,12.30
2023-05-19T13:28:05.856Z,16.75
2023-05-19T13:30:38.786Z,9.32
2023-05-19T13:33:06.680Z,11.07
2023-05-19T13:35:37.815Z,14.85
2023-05-19T13:38:06.997Z,19.15
2023-05-19T13:40:35.338Z,12.02
2023-05-19T13:43:04.237Z,13.88
2023-05-19T13:45:31.674Z,12.93
2023-05-19T13:47:59.666Z,14.65
2023-05-19T13:50:27.153Z,13.23
2023-05-19T13:52:54.654Z,12.32
2023-05-19T13:55:23.496Z,15.45
2023-05-19T13:57:51.088Z,10.48
2023-05-19T14:00:19.516Z,12.93
2023-05-19T14:02:47.503Z,12.40
2023-05-19T14:05:15.012Z,10.52
2023-05-19T14:07:42.650Z,11.98
2023-05-19T14:10:10.649Z,9.07
2023-05-19T14:12:55.143Z,10.57
2023-05-19T14:15:27.267Z,9.25
2023-05-19T14:17:54.708Z,9.23
2023-05-19T14:20:22.199Z,13.65
2023-05-19T14:22:50.081Z,10.18
2023-05-19T14:25:17.432Z,10.95
2023-05-19T14:27:44.809Z,13.43
2023-05-19T14:30:12.904Z,12.50
2023-05-19T14:32:40.678Z,14.18
2023-05-19T14:35:08.454Z,12.20
2023-05-19T14:37:36.325Z,17.62
2023-05-19T14:40:04.753Z,24.90
2023-05-19T14:42:32.199Z,15.70
2023-05-19T14:45:00.041Z,17.48
2023-05-19T14:47:27.597Z,19.40
2023-05-19T14:49:55.007Z,25.40
2023-05-19T14:52:23.279Z,20.02
2023-05-19T14:54:50.698Z,21.73
2023-05-19T14:57:18.338Z,22.77
2023-05-19T14:59:46.029Z,16.23
2023-05-19T15:02:13.363Z,22.23
2023-05-19T15:04:40.693Z,15.05
2023-05-19T15:07:10.504Z,11.70
2023-05-19T15:09:38.376Z,13.27
2023-05-19T15:12:05.964Z,9.35
2023-05-19T15:14:33.657Z,12.13
2023-05-19T15:17:01.056Z,12.88
2023-05-19T15:19:28.505Z,17.85
2023-05-19T15:21:56.294Z,26.48
2023-05-19T15:24:24.506Z,17.40
2023-05-19T15:26:52.298Z,17.98
2023-05-19T15:29:19.999Z,12.77
2023-05-19T15:31:52.216Z,11.02
2023-05-19T15:34:21.039Z,15.93
2023-05-19T15:36:48.597Z,11.45
2023-05-19T15:39:16.133Z,15.13
2023-05-19T15:41:43.888Z,17.02
2023-05-19T15:44:11.270Z,18.48
2023-05-19T15:46:38.747Z,16.67
2023-05-19T15:49:06.563Z,50.57
2023-05-19T15:51:34.345Z,37.08
2023-05-19T15:54:01.741Z,23.02
2023-05-19T15:56:29.363Z,18.20
2023-05-19T15:58:56.811Z,19.98
2023-05-19T16:01:24.295Z,18.83
2023-05-19T16:03:52.217Z,13.30
2023-05-19T16:06:19.864Z,23.10
2023-05-19T16:08:47.452Z,18.00
2023-05-19T16:11:15.350Z,11.30
2023-05-19T16:13:42.706Z,11.07
2023-05-19T16:16:10.199Z,26.20
2023-05-19T16:18:37.980Z,30.95
2023-05-19T16:21:08.626Z,21.20
2023-05-19T16:23:39.039Z,22.30
2023-05-19T16:26:12.313Z,28.90
2023-05-19T16:28:39.852Z,18.98
2023-05-19T16:31:08.208Z,16.27
2023-05-19T16:33:36.002Z,15.23
2023-05-19T16:36:07.616Z,16.25
2023-05-19T16:38:35.282Z,26.25
2023-05-19T16:41:04.556Z,19.08
2023-05-19T16:43:34.042Z,17.65
2023-05-19T16:46:03.662Z,22.95
2023-05-19T16:48:31.625Z,23.60
2023-05-19T16:50:59.563Z,22.17
2023-05-19T16:53:27.548Z,24.45
2023-05-19T16:55:55.103Z,22.33
2023-05-19T16:58:22.499Z,20.83
2023-05-19T17:00:52.361Z,23.23
2023-05-19T17:03:20.848Z,24.42
2023-05-19T17:05:48.749Z,20.52
2023-05-19T17:08:33.974Z,17.17
2023-05-19T17:11:01.313Z,23.08
2023-05-19T17:13:33.755Z,17.52
2023-05-19T17:16:03.735Z,22.60
2023-05-19T17:18:32.188Z,25.73
2023-05-19T17:21:04.110Z,31.52
2023-05-19T17:23:34.570Z,27.42
2023-05-19T17:26:02.137Z,22.85
2023-05-19T17:28:29.695Z,21.08
2023-05-19T17:30:57.670Z,16.10
2023-05-19T17:33:25.209Z,19.65
2023-05-19T17:35:58.281Z,41.17
2023-05-19T17:38:29.998Z,36.85
2023-05-19T17:41:11.667Z,37.90
2023-05-19T17:43:43.076Z,27.33
2023-05-19T17:46:11.844Z,22.02
2023-05-19T17:48:40.301Z,23.40
2023-05-19T17:51:09.703Z,28.90
2023-05-19T17:53:37.629Z,26.85
2023-05-19T17:56:09.003Z,29.35
2023-05-19T17:58:36.996Z,26.87
2023-05-19T18:01:07.684Z,25.80
2023-05-19T18:03:37.344Z,46.57
2023-05-19T18:06:10.366Z,25.53
2023-05-19T18:08:42.654Z,28.80
2023-05-19T18:11:15.882Z,17.47
2023-05-19T18:13:44.470Z,17.00
2023-05-19T18:16:21.877Z,20.85
2023-05-19T18:18:50.700Z,16.53
2023-05-19T18:21:20.063Z,14.82
2023-05-19T18:23:50.343Z,21.43
2023-05-19T18:26:18.161Z,21.73
2023-05-19T18:28:45.714Z,24.67
2023-05-19T18:31:19.359Z,22.43
2023-05-19T18:33:47.643Z,22.70
2023-05-19T18:36:20.686Z,19.17
2023-05-19T18:38:49.899Z,19.77
2023-05-19T18:41:17.378Z,15.05
2023-05-19T18:43:44.873Z,17.20
2023-05-19T18:46:13.663Z,20.93
2023-05-19T18:48:41.274Z,15.05
2023-05-19T18:51:09.554Z,14.37
2023-05-19T18:53:37.623Z,18.55
2023-05-19T18:56:05.242Z,16.07
2023-05-19T18:58:32.770Z,18.57
2023-05-19T19:01:00.592Z,17.03
2023-05-19T19:03:28.794Z,36.77
2023-05-19T19:05:57.363Z,36.20
2023-05-19T19:08:25.437Z,20.48
2023-05-19T19:10:53.754Z,15.60
2023-05-19T19:13:21.391Z,17.60
2023-05-19T19:15:49.072Z,13.03
2023-05-19T19:18:16.510Z,16.43
2023-05-19T19:20:43.911Z,21.17
2023-05-19T19:23:11.643Z,21.07
2023-05-19T19:25:39.030Z,19.03
2023-05-19T19:28:06.662Z,14.37
2023-05-19T19:30:34.765Z,22.97
2023-05-19T19:33:03.095Z,40.67
2023-05-19T19:35:32.072Z,40.53
2023-05-19T19:38:00.066Z,79.20
2023-05-19T19:40:27.590Z,42.63
2023-05-19T19:42:55.206Z,34.93
2023-05-19T19:45:23.030Z,33.73
2023-05-19T19:47:50.438Z,31.53
2023-05-19T19:50:18.022Z,43.87
2023-05-19T19:52:45.838Z,35.67
2023-05-19T19:55:13.383Z,30.27
2023-05-19T19:57:40.839Z,28.07
2023-05-19T20:00:09.368Z,25.13
2023-05-19T20:02:45.486Z,18.27
2023-05-19T20:05:23.102Z,14.43
2023-05-19T20:07:52.566Z,19.50
2023-05-19T20:10:21.072Z,14.10
2023-05-19T20:12:50.742Z,15.97
2023-05-19T20:15:18.874Z,23.63
2023-05-19T20:17:46.384Z,59.63
2023-05-19T20:20:14.232Z,35.90
2023-05-19T20:22:42.005Z,30.60
2023-05-19T20:25:09.984Z,30.50
2023-05-19T20:27:37.866Z,32.63
2023-05-19T20:30:06.312Z,25.55
2023-05-19T20:32:33.744Z,23.23
2023-05-19T20:35:01.666Z,26.07
2023-05-19T20:37:29.359Z,32.97
2023-05-19T20:39:56.678Z,33.33
2023-05-19T20:42:24.109Z,27.50
2023-05-19T20:44:52.304Z,23.27
2023-05-19T20:47:20.005Z,19.17
2023-05-19T20:49:48.441Z,23.33
2023-05-19T20:52:17.072Z,28.87
2023-05-19T20:54:46.525Z,27.05
2023-05-19T20:57:13.975Z,33.07
2023-05-19T20:59:41.748Z,28.87
2023-05-19T21:02:09.796Z,23.47
2023-05-19T21:04:38.178Z,23.93
2023-05-19T21:07:08.975Z,24.30
2023-05-19T21:09:36.523Z,23.73
2023-05-19T21:12:04.063Z,34.63
2023-05-19T21:14:31.755Z,20.23
2023-05-19T21:16:59.599Z,18.80
2023-05-19T21:19:27.022Z,16.57
2023-05-19T21:21:54.751Z,18.53
2023-05-19T21:24:22.189Z,20.07
2023-05-19T21:26:49.952Z,12.67
2023-05-19T21:29:17.650Z,14.33
2023-05-19T21:31:45.070Z,19.23
2023-05-19T21:34:12.460Z,12.63
2023-05-19T21:36:40.277Z,16.03
2023-05-19T21:39:07.698Z,20.70
2023-05-19T21:41:35.761Z,23.90
2023-05-19T21:44:03.775Z,24.00
2023-05-19T21:46:31.324Z,21.40
2023-05-19T21:48:58.831Z,25.50
2023-05-19T21:51:26.557Z,19.00
2023-05-19T21:53:53.963Z,26.27
2023-05-19T21:56:22.812Z,30.17
2023-05-19T22:01:18.227Z,27.30
2023-05-19T22:03:46.002Z,14.90
2023-05-19T22:06:13.420Z,17.63
2023-05-19T22:08:40.995Z,18.53
2023-05-19T22:11:09.236Z,26.67
2023-05-19T22:13:41.292Z,19.50
2023-05-19T22:16:09.603Z,21.40
2023-05-19T22:18:37.054Z,22.10
2023-05-19T22:21:04.807Z,24.73
2023-05-19T22:23:32.480Z,21.63
2023-05-19T22:25:59.872Z,21.27
2023-05-19T22:28:27.322Z,17.83
2023-05-19T22:30:54.985Z,20.50
2023-05-19T22:33:22.308Z,17.40
2023-05-19T22:35:49.507Z,19.10
2023-05-19T22:38:17.151Z,86.83
2023-05-19T22:40:44.732Z,17.50
2023-05-19T22:43:12.051Z,18.10
2023-05-19T22:45:39.812Z,21.53
2023-05-19T22:48:07.398Z,16.43
2023-05-19T22:50:34.816Z,14.17
2023-05-19T22:53:02.560Z,23.60
2023-05-19T22:55:29.822Z,16.73
2023-05-19T22:57:57.269Z,24.17
2023-05-19T23:00:24.909Z,57.10
2023-05-19T23:02:52.416Z,32.73
2023-05-19T23:05:19.831Z,48.03
2023-05-19T23:07:47.503Z,45.30
2023-05-19T23:10:14.847Z,27.43
2023-05-19T23:12:42.669Z,37.63
2023-05-19T23:15:11.440Z,45.40
2023-05-19T23:17:38.928Z,43.60
2023-05-19T23:20:06.850Z,37.23
2023-05-19T23:22:34.522Z,47.85
2023-05-19T23:25:05.833Z,49.47
2023-05-19T23:27:34.773Z,86.93
2023-05-19T23:30:03.518Z,93.07
2023-05-19T23:32:31.394Z,100.10
2023-05-19T23:35:08.674Z,51.47
2023-05-19T23:37:36.332Z,45.43
2023-05-19T23:40:03.938Z,43.30
2023-05-19T23:42:31.399Z,41.57
2023-05-19T23:44:59.089Z,50.10
2023-05-19T23:47:26.980Z,47.87
2023-05-19T23:49:54.342Z,39.67
2023-05-19T23:52:22.002Z,37.40
2023-05-19T23:54:49.559Z,49.67
2023-05-19T23:57:17.253Z,38.13
2023-05-19T23:59:45.023Z,45.90
